Time;durP1;ratioP1;P1;durP2;ratioP2;P2;SDS_P1;SDS_P2;PMS_P1;PMS_P2;Temp;Humidity;BMP_temperature;BMP_pressure;BME280_temperature;BME280_humidity;BME280_pressure;Samples;Min_cycle;Max_cycle;Signal;HPM_P1;HPM_P2
2023/06/27 00:00:13;;;;;;;47.17;45.40;;;20.20;99.90;;;;;;5012142;28;20230;-58
2023/06/27 00:02:40;;;;;;;40.95;39.42;;;20.20;99.90;;;;;;5012460;28;20217;-56
2023/06/27 00:05:08;;;;;;;41.60;40.08;;;20.10;99.90;;;;;;5018194;28;20229;-57
2023/06/27 00:07:34;;;;;;;38.35;36.95;;;20.10;99.90;;;;;;5014727;28;20235;-58
2023/06/27 00:10:02;;;;;;;37.80;36.35;;;20.10;99.90;;;;;;5011794;28;20237;-58
2023/06/27 00:12:32;;;;;;;35.85;34.55;;;20.10;99.90;;;;;;5012381;28;20212;-58
2023/06/27 00:15:00;;;;;;;28.27;27.17;;;20.00;99.90;;;;;;5012221;28;20308;-58
2023/06/27 00:17:27;;;;;;;27.52;26.50;;;20.00;99.90;;;;;;5012579;28;20213;-58
2023/06/27 00:19:57;;;;;;;27.23;26.23;;;19.90;99.90;;;;;;5011004;28;20967;-57
2023/06/27 00:22:26;;;;;;;24.92;24.00;;;19.80;99.90;;;;;;5013216;28;20719;-57
2023/06/27 00:24:54;;;;;;;22.80;21.95;;;19.80;99.90;;;;;;5014522;28;20300;-56
2023/06/27 00:27:20;;;;;;;26.60;25.52;;;19.80;99.90;;;;;;5012562;28;20196;-57
2023/06/27 00:29:47;;;;;;;21.33;20.42;;;19.70;99.90;;;;;;5011431;28;20300;-58
2023/06/27 00:32:16;;;;;;;22.58;21.77;;;19.70;99.90;;;;;;5014522;28;20209;-58
2023/06/27 00:34:42;;;;;;;21.70;20.90;;;19.70;99.90;;;;;;5015615;28;20208;-58
2023/06/27 00:37:09;;;;;;;23.13;22.27;;;19.60;99.90;;;;;;5015721;28;20365;-58
2023/06/27 00:39:36;;;;;;;34.90;33.47;;;19.50;99.90;;;;;;5031635;28;20289;-57
2023/06/27 00:42:03;;;;;;;34.45;33.15;;;19.50;99.90;;;;;;5031744;28;20209;-57
2023/06/27 00:44:30;;;;;;;20.73;20.00;;;19.50;99.90;;;;;;5032387;28;20691;-57
2023/06/27 00:46:58;;;;;;;18.35;17.73;;;19.50;99.90;;;;;;5033607;28;20259;-57
2023/06/27 00:49:26;;;;;;;36.40;35.00;;;19.40;99.90;;;;;;5030998;28;20224;-57
2023/06/27 00:51:55;;;;;;;21.48;20.65;;;19.30;99.90;;;;;;5031059;28;20232;-57
2023/06/27 00:54:23;;;;;;;19.77;19.08;;;19.40;99.90;;;;;;5032325;28;20208;-57
2023/06/27 00:56:53;;;;;;;19.08;18.38;;;19.30;99.90;;;;;;5031760;28;20211;-58
2023/06/27 00:59:20;;;;;;;19.65;18.95;;;19.30;99.90;;;;;;5031559;28;20777;-60
2023/06/27 01:01:47;;;;;;;18.02;17.38;;;19.30;99.90;;;;;;5032089;28;20252;-58
2023/06/27 01:04:14;;;;;;;24.25;23.13;;;19.30;99.90;;;;;;5032149;28;20628;-57
2023/06/27 01:06:52;;;;;;;22.00;21.20;;;19.30;99.90;;;;;;5032557;28;20215;-58
2023/06/27 01:09:26;;;;;;;10.77;10.38;;;19.20;99.90;;;;;;5031225;28;20231;-57
2023/06/27 01:12:01;;;;;;;67.10;64.68;;;19.20;99.90;;;;;;5031701;28;20235;-57
2023/06/27 01:14:30;;;;;;;12.93;12.45;;;19.20;99.90;;;;;;5031687;28;20666;-58
2023/06/27 01:16:58;;;;;;;25.13;24.23;;;19.10;99.90;;;;;;5031829;28;20236;-57
2023/06/27 01:19:30;;;;;;;35.05;33.75;;;19.10;99.90;;;;;;5030120;28;20316;-57
2023/06/27 01:22:04;;;;;;;606.50;321.73;;;19.10;99.90;;;;;;5031078;28;20239;-58
2023/06/27 01:24:33;;;;;;;1.05;1.00;;;19.10;99.90;;;;;;5031594;28;20200;-58
2023/06/27 01:27:01;;;;;;;1.20;1.10;;;19.10;99.90;;;;;;5031319;28;20607;-58
2023/06/27 01:29:29;;;;;;;0.90;0.90;;;19.00;99.90;;;;;;5022038;28;20229;-57
2023/06/27 01:32:04;;;;;;;0.80;0.80;;;19.00;99.90;;;;;;5009907;28;20703;-57
2023/06/27 01:34:34;;;;;;;626.92;343.60;;;19.00;99.90;;;;;;5003985;28;20678;-57
2023/06/27 01:37:07;;;;;;;87.35;80.25;;;19.00;99.90;;;;;;5010568;28;20198;-56
2023/06/27 01:39:41;;;;;;;1999.90;999.90;;;19.00;99.90;;;;;;5009824;28;20207;-58
2023/06/27 01:42:15;;;;;;;118.68;113.68;;;19.00;99.90;;;;;;5010330;28;20308;-57
2023/06/27 01:44:45;;;;;;;102.38;98.22;;;19.00;99.90;;;;;;5010714;28;20212;-57
2023/06/27 01:47:12;;;;;;;71.63;68.68;;;19.00;99.90;;;;;;5011923;28;20586;-57
2023/06/27 01:49:39;;;;;;;144.57;138.35;;;19.00;99.90;;;;;;5010823;28;20229;-56
2023/06/27 01:52:07;;;;;;;0.90;0.90;;;19.00;99.90;;;;;;5011474;28;20232;-57
2023/06/27 01:54:35;;;;;;;1999.90;804.80;;;19.00;99.90;;;;;;5011723;28;20231;-58
2023/06/27 01:57:02;;;;;;;59.20;56.35;;;19.00;99.90;;;;;;5011871;28;20304;-57
2023/06/27 01:59:29;;;;;;;85.10;81.25;;;19.00;99.90;;;;;;5010722;28;20283;-56
2023/06/27 02:01:56;;;;;;;537.75;486.35;;;19.00;99.90;;;;;;5011676;28;20257;-57
2023/06/27 02:04:22;;;;;;;640.17;591.63;;;19.00;99.90;;;;;;5011027;28;20205;-58
2023/06/27 02:06:49;;;;;;;489.77;455.80;;;18.90;99.90;;;;;;5010933;28;20217;-58
2023/06/27 02:09:16;;;;;;;465.25;436.48;;;18.90;99.90;;;;;;5008779;28;20236;-58
2023/06/27 02:11:45;;;;;;;1281.80;745.58;;;18.90;99.90;;;;;;5009974;28;20589;-60
2023/06/27 02:14:12;;;;;;;91.05;87.00;;;18.90;99.90;;;;;;5010308;28;20215;-57
2023/06/27 02:16:39;;;;;;;1999.90;999.90;;;18.90;99.90;;;;;;5010192;28;20201;-57
2023/06/27 02:19:06;;;;;;;1736.80;847.75;;;18.90;99.90;;;;;;5009217;28;20695;-57
2023/06/27 02:21:33;;;;;;;1776.07;686.10;;;18.90;99.90;;;;;;5010662;28;20233;-58
2023/06/27 02:24:00;;;;;;;1455.45;643.10;;;18.90;99.90;;;;;;5011495;28;20209;-57
2023/06/27 02:26:27;;;;;;;1999.90;999.90;;;18.90;99.90;;;;;;5011661;28;20205;-56
2023/06/27 02:28:55;;;;;;;1999.90;999.90;;;18.90;99.90;;;;;;5019917;28;20243;-57
2023/06/27 02:31:22;;;;;;;1999.90;999.90;;;18.80;99.90;;;;;;5020421;28;20233;-58
2023/06/27 02:33:49;;;;;;;1999.90;999.90;;;18.80;99.90;;;;;;5021422;28;20205;-58
2023/06/27 02:36:16;;;;;;;1999.90;999.90;;;18.80;99.90;;;;;;5021420;28;20211;-58
2023/06/27 02:38:44;;;;;;;1999.90;999.90;;;18.80;99.90;;;;;;5015018;28;20546;-58
2023/06/27 02:41:10;;;;;;;1999.90;999.90;;;18.80;99.90;;;;;;5012300;28;20235;-57
2023/06/27 02:43:39;;;;;;;1999.90;999.90;;;18.80;99.90;;;;;;5011813;28;20202;-58
2023/06/27 02:46:07;;;;;;;1999.90;999.90;;;18.80;99.90;;;;;;5011084;28;20240;-57
2023/06/27 02:48:34;;;;;;;1999.90;999.90;;;18.80;99.90;;;;;;5010113;28;20229;-57
2023/06/27 02:51:01;;;;;;;1999.90;999.90;;;18.80;99.90;;;;;;5009808;28;20222;-57
2023/06/27 02:53:28;;;;;;;1999.90;999.90;;;18.80;99.90;;;;;;5010482;28;20711;-57
2023/06/27 02:55:57;;;;;;;1999.90;999.90;;;18.80;99.90;;;;;;5011249;28;20532;-57
2023/06/27 02:58:24;;;;;;;1999.90;999.90;;;18.70;99.90;;;;;;5011505;28;20217;-57
2023/06/27 03:00:51;;;;;;;1999.90;999.90;;;18.70;99.90;;;;;;5011404;28;20316;-57
2023/06/27 03:03:19;;;;;;;1999.90;999.90;;;18.70;99.90;;;;;;5011374;28;20213;-57
2023/06/27 03:05:46;;;;;;;1999.90;999.90;;;18.70;99.90;;;;;;5011610;28;20295;-57
2023/06/27 03:08:13;;;;;;;1999.90;991.05;;;18.70;99.90;;;;;;5010874;28;20239;-57
2023/06/27 03:10:40;;;;;;;1999.90;999.90;;;18.60;99.90;;;;;;5009164;28;20881;-57
2023/06/27 03:13:06;;;;;;;1999.90;999.90;;;18.70;99.90;;;;;;5010122;28;20205;-57
2023/06/27 03:15:33;;;;;;;1999.90;984.58;;;18.70;99.90;;;;;;5010687;28;20648;-58
2023/06/27 03:18:00;;;;;;;1999.90;996.47;;;18.60;99.90;;;;;;5011816;28;20201;-57
2023/06/27 03:20:28;;;;;;;1999.90;954.60;;;18.60;99.90;;;;;;5013150;28;20217;-57
2023/06/27 03:22:55;;;;;;;1999.90;967.10;;;18.50;99.90;;;;;;5015717;28;20312;-56
2023/06/27 03:25:22;;;;;;;1999.90;994.90;;;18.50;99.90;;;;;;5014444;28;20205;-57
2023/06/27 03:27:49;;;;;;;1999.90;999.90;;;18.50;99.90;;;;;;5014990;28;20299;-58
2023/06/27 03:30:16;;;;;;;1999.90;999.90;;;18.50;99.90;;;;;;5016679;28;20236;-58
2023/06/27 03:32:42;;;;;;;1999.90;999.90;;;18.50;99.90;;;;;;5017588;28;20209;-58
2023/06/27 03:35:09;;;;;;;1999.90;999.90;;;18.50;99.90;;;;;;5015750;28;20743;-58
2023/06/27 03:37:38;;;;;;;1999.90;999.90;;;18.50;99.90;;;;;;5013771;28;20256;-58
2023/06/27 03:40:06;;;;;;;1999.90;999.90;;;18.40;99.90;;;;;;5012315;28;20312;-58
2023/06/27 03:42:33;;;;;;;1999.90;999.90;;;18.40;99.90;;;;;;5012812;28;20697;-58
2023/06/27 03:45:00;;;;;;;1999.90;999.90;;;18.40;99.90;;;;;;5013112;28;20671;-58
2023/06/27 03:47:27;;;;;;;1999.90;999.90;;;18.40;99.90;;;;;;5012848;28;20216;-57
2023/06/27 03:49:54;;;;;;;1999.90;999.90;;;18.40;99.90;;;;;;5011978;28;20785;-58
2023/06/27 03:52:20;;;;;;;1999.90;999.90;;;18.40;99.90;;;;;;5012550;28;20217;-57
2023/06/27 03:54:49;;;;;;;1999.90;999.90;;;18.40;99.90;;;;;;5012329;28;20546;-57
2023/06/27 03:57:15;;;;;;;1999.90;999.90;;;18.40;99.90;;;;;;5013626;28;20211;-58
2023/06/27 03:59:42;;;;;;;1999.90;999.90;;;18.40;99.90;;;;;;5013259;28;20211;-57
2023/06/27 04:02:09;;;;;;;1958.97;975.10;;;18.40;99.90;;;;;;5012507;28;20211;-57
2023/06/27 04:04:36;;;;;;;1999.90;998.55;;;18.40;99.90;;;;;;5013871;28;20267;-57
2023/06/27 04:07:03;;;;;;;689.47;637.42;;;18.50;99.90;;;;;;5013592;28;20205;-63
2023/06/27 04:09:29;;;;;;;1999.90;999.90;;;18.50;99.90;;;;;;5012089;28;20255;-64
2023/06/27 04:11:59;;;;;;;1999.90;999.90;;;18.60;99.90;;;;;;5012821;28;20346;-62
2023/06/27 04:14:27;;;;;;;1999.90;999.90;;;18.70;99.90;;;;;;5014294;28;20221;-62
2023/06/27 04:16:54;;;;;;;1999.90;999.90;;;18.70;99.90;;;;;;5013564;28;20360;-64
2023/06/27 04:19:21;;;;;;;1999.90;999.90;;;18.80;99.90;;;;;;5012195;28;20304;-65
2023/06/27 04:21:48;;;;;;;1999.90;999.90;;;18.90;99.90;;;;;;5012357;28;20229;-62
2023/06/27 04:24:15;;;;;;;1999.90;999.90;;;18.90;99.90;;;;;;5012456;28;20590;-62
2023/06/27 04:26:42;;;;;;;1999.90;999.90;;;19.00;99.90;;;;;;5012639;28;20740;-62
2023/06/27 04:29:11;;;;;;;1125.13;685.67;;;18.90;99.90;;;;;;5011857;28;20232;-64
2023/06/27 04:31:37;;;;;;;1649.63;878.95;;;19.00;99.90;;;;;;5012115;28;20229;-64
2023/06/27 04:34:05;;;;;;;1158.15;713.67;;;19.10;99.90;;;;;;5012764;28;20656;-64
2023/06/27 04:36:34;;;;;;;495.17;460.88;;;19.20;99.90;;;;;;5012057;28;20217;-63
2023/06/27 04:39:04;;;;;;;212.43;202.77;;;19.20;99.90;;;;;;5014331;28;20205;-62
2023/06/27 04:41:31;;;;;;;225.10;214.25;;;19.30;99.90;;;;;;5009855;28;20228;-63
2023/06/27 04:43:58;;;;;;;211.82;201.63;;;19.30;99.90;;;;;;5013205;28;20205;-62
2023/06/27 04:46:28;;;;;;;253.40;239.82;;;19.50;99.90;;;;;;5014360;28;20205;-63
2023/06/27 04:48:56;;;;;;;1486.55;718.67;;;19.50;99.90;;;;;;5024271;28;20205;-63
2023/06/27 04:51:23;;;;;;;1999.90;991.17;;;19.60;99.90;;;;;;5037742;28;20217;-65
2023/06/27 04:53:50;;;;;;;1999.90;997.33;;;19.70;99.90;;;;;;5026576;28;20276;-65
2023/06/27 04:56:17;;;;;;;1999.90;993.83;;;19.70;99.90;;;;;;5025788;28;20269;-64
2023/06/27 04:58:44;;;;;;;1999.90;995.00;;;19.70;99.90;;;;;;5023847;28;20342;-63
2023/06/27 05:01:11;;;;;;;1999.90;999.85;;;19.80;99.90;;;;;;5021711;28;20222;-63
2023/06/27 05:03:39;;;;;;;1999.90;999.90;;;19.90;99.90;;;;;;5013484;28;20202;-63
2023/06/27 05:06:06;;;;;;;1999.90;999.90;;;19.90;99.90;;;;;;5012040;28;20205;-64
2023/06/27 05:08:34;;;;;;;1999.90;999.90;;;19.80;99.90;;;;;;5011554;28;20225;-65
2023/06/27 05:11:01;;;;;;;1999.90;999.90;;;19.90;99.90;;;;;;5009985;28;20229;-64
2023/06/27 05:13:27;;;;;;;1999.90;999.90;;;19.90;99.90;;;;;;5027186;22;20228;-61
2023/06/27 05:15:54;;;;;;;1999.90;999.90;;;20.00;99.90;;;;;;5020251;28;20206;-61
2023/06/27 05:18:25;;;;;;;1999.90;997.90;;;19.90;99.90;;;;;;5013328;28;20315;-60
2023/06/27 05:20:54;;;;;;;1999.90;999.90;;;20.10;99.90;;;;;;5012974;28;20236;-59
2023/06/27 05:23:21;;;;;;;1999.90;999.90;;;20.30;99.90;;;;;;5019269;28;20222;-60
2023/06/27 05:25:49;;;;;;;1999.90;999.90;;;20.40;99.90;;;;;;4998255;28;20198;-59
2023/06/27 05:28:16;;;;;;;1128.68;709.10;;;20.60;99.90;;;;;;4995338;28;20212;-59
2023/06/27 05:30:43;;;;;;;529.75;493.13;;;20.60;99.90;;;;;;4993118;28;20699;-61
2023/06/27 05:33:10;;;;;;;528.65;491.23;;;20.60;99.90;;;;;;5010213;28;20232;-61
2023/06/27 05:35:37;;;;;;;486.77;454.45;;;20.60;99.90;;;;;;5013147;28;20646;-61
2023/06/27 05:38:06;;;;;;;476.63;446.20;;;20.60;99.90;;;;;;5013491;28;20276;-60
2023/06/27 05:40:33;;;;;;;377.60;354.80;;;20.50;99.90;;;;;;5013686;28;20288;-62
2023/06/27 05:43:00;;;;;;;373.27;351.67;;;20.60;99.90;;;;;;5010076;28;20293;-61
2023/06/27 05:45:27;;;;;;;335.88;317.65;;;20.50;99.90;;;;;;5003767;28;20212;-64
2023/06/27 05:47:54;;;;;;;321.70;304.10;;;20.40;99.90;;;;;;5004079;28;20209;-62
2023/06/27 05:50:21;;;;;;;300.65;284.35;;;20.40;99.90;;;;;;5011565;28;20229;-63
2023/06/27 05:52:48;;;;;;;293.48;278.50;;;20.40;99.90;;;;;;5011733;28;20690;-62
2023/06/27 05:55:16;;;;;;;281.02;267.08;;;20.40;99.90;;;;;;5004545;28;20645;-64
2023/06/27 05:57:43;;;;;;;293.13;278.13;;;20.50;99.90;;;;;;5003877;28;20201;-63
2023/06/27 06:00:13;;;;;;;262.42;249.80;;;20.60;99.90;;;;;;4993014;28;20199;-64
2023/06/27 06:02:43;;;;;;;557.67;521.17;;;20.70;99.90;;;;;;5013168;28;20249;-62
2023/06/27 06:05:11;;;;;;;1076.93;923.97;;;20.70;99.90;;;;;;4998143;28;20229;-63
2023/06/27 06:07:41;;;;;;;1000.33;893.83;;;20.80;99.90;;;;;;4998246;28;20186;-63
2023/06/27 06:10:08;;;;;;;937.47;843.83;;;20.70;99.90;;;;;;4996564;28;20712;-62
2023/06/27 06:12:37;;;;;;;937.80;843.97;;;20.80;99.90;;;;;;4994232;28;20296;-63
2023/06/27 06:15:04;;;;;;;911.20;821.92;;;20.90;99.90;;;;;;4995317;28;20611;-62
2023/06/27 06:17:31;;;;;;;908.95;819.25;;;21.00;99.90;;;;;;4993636;28;20758;-63
2023/06/27 06:19:58;;;;;;;895.08;810.13;;;21.00;99.90;;;;;;4991565;28;20198;-63
2023/06/27 06:22:25;;;;;;;902.60;816.08;;;20.90;99.90;;;;;;4991875;28;20208;-63
2023/06/27 06:24:51;;;;;;;860.22;782.33;;;20.90;99.90;;;;;;4992071;28;20229;-61
2023/06/27 06:27:18;;;;;;;852.63;773.47;;;20.90;99.90;;;;;;4993065;28;20228;-62
2023/06/27 06:29:46;;;;;;;869.47;789.10;;;20.70;99.90;;;;;;4992485;28;20309;-63
2023/06/27 06:32:13;;;;;;;852.28;773.67;;;20.80;99.90;;;;;;4992905;28;20213;-64
2023/06/27 06:34:40;;;;;;;907.83;816.83;;;20.90;99.90;;;;;;4991897;28;20226;-63
2023/06/27 06:37:07;;;;;;;897.35;807.65;;;21.00;99.90;;;;;;4991527;28;20216;-63
2023/06/27 06:39:35;;;;;;;910.00;817.78;;;21.00;99.90;;;;;;4990877;28;20210;-63
2023/06/27 06:42:02;;;;;;;897.80;808.42;;;21.00;99.90;;;;;;4991265;28;20220;-62
2023/06/27 06:44:29;;;;;;;878.83;792.63;;;21.20;99.90;;;;;;4991118;28;20643;-62
2023/06/27 06:46:57;;;;;;;894.40;806.10;;;21.30;99.90;;;;;;4990289;28;20296;-64
2023/06/27 06:49:24;;;;;;;915.15;822.97;;;21.50;99.90;;;;;;4991651;28;20217;-68
2023/06/27 06:51:50;;;;;;;929.72;835.03;;;21.60;99.90;;;;;;4990335;28;20643;-64
2023/06/27 06:54:18;;;;;;;896.55;805.28;;;21.50;99.90;;;;;;4991179;28;20246;-64
2023/06/27 06:56:45;;;;;;;958.90;858.28;;;21.50;99.90;;;;;;4991032;28;20202;-64
2023/06/27 06:59:12;;;;;;;961.70;856.90;;;21.40;99.90;;;;;;4994504;28;20220;-63
2023/06/27 07:01:38;;;;;;;982.53;858.53;;;21.50;99.90;;;;;;4992498;28;20751;-62
2023/06/27 07:04:07;;;;;;;964.00;858.38;;;21.60;99.90;;;;;;4991299;28;20221;-63
2023/06/27 07:06:33;;;;;;;963.03;857.60;;;21.70;99.90;;;;;;4991257;28;20217;-62
2023/06/27 07:09:00;;;;;;;968.67;861.17;;;21.90;99.90;;;;;;4990977;28;20318;-62
2023/06/27 07:11:27;;;;;;;985.20;874.25;;;21.90;99.90;;;;;;4990223;28;20230;-62
2023/06/27 07:13:54;;;;;;;974.10;853.33;;;21.90;99.90;;;;;;4991273;28;20717;-64
2023/06/27 07:16:21;;;;;;;1006.55;854.35;;;22.00;99.90;;;;;;4991304;28;20202;-62
2023/06/27 07:18:47;;;;;;;985.03;866.05;;;22.00;99.90;;;;;;4990963;28;20718;-64
2023/06/27 07:21:16;;;;;;;967.33;860.22;;;22.10;99.90;;;;;;4991624;28;20210;-62
2023/06/27 07:23:42;;;;;;;1010.65;879.15;;;22.20;99.90;;;;;;4992803;28;20292;-65
2023/06/27 07:26:09;;;;;;;1034.05;865.65;;;22.10;99.90;;;;;;4992795;28;20233;-62
2023/06/27 07:28:36;;;;;;;1030.53;870.05;;;22.10;99.90;;;;;;4993197;28;20210;-62
2023/06/27 07:31:03;;;;;;;1055.25;878.88;;;22.30;99.90;;;;;;4990987;28;20275;-62
2023/06/27 07:33:30;;;;;;;1117.28;890.70;;;22.40;99.90;;;;;;4991765;28;20229;-62
2023/06/27 07:35:56;;;;;;;1105.18;889.78;;;22.40;99.90;;;;;;4992556;28;20692;-62
2023/06/27 07:38:25;;;;;;;1145.22;889.47;;;22.30;99.90;;;;;;4991897;28;20208;-62
2023/06/27 07:40:51;;;;;;;1082.85;873.63;;;22.30;99.90;;;;;;4991673;28;20690;-62
2023/06/27 07:43:18;;;;;;;1229.20;899.55;;;22.30;99.90;;;;;;4991773;28;20317;-63
2023/06/27 07:45:45;;;;;;;1233.53;902.30;;;22.50;99.90;;;;;;4991787;28;20210;-63
2023/06/27 07:48:12;;;;;;;1241.40;889.47;;;22.50;99.90;;;;;;4992136;28;20206;-62
2023/06/27 07:50:39;;;;;;;1267.50;904.20;;;22.60;99.90;;;;;;4990648;28;20218;-64
2023/06/27 07:53:05;;;;;;;1322.07;910.25;;;22.70;99.90;;;;;;4991318;28;20206;-63
2023/06/27 07:55:34;;;;;;;1291.20;903.75;;;22.90;99.90;;;;;;4992201;28;20749;-64
2023/06/27 07:58:01;;;;;;;1439.68;929.10;;;23.10;99.90;;;;;;4991205;28;20202;-61
2023/06/27 08:00:27;;;;;;;1419.35;935.25;;;23.20;99.90;;;;;;4992157;28;20297;-62
2023/06/27 08:02:54;;;;;;;1558.38;933.00;;;23.30;99.90;;;;;;4993367;28;20241;-64
2023/06/27 08:05:22;;;;;;;1999.90;999.90;;;23.50;99.90;;;;;;4992523;28;20272;-63
2023/06/27 08:07:49;;;;;;;1999.90;999.90;;;23.60;99.90;;;;;;4994438;28;20229;-63
2023/06/27 08:10:16;;;;;;;1999.90;999.90;;;23.60;99.90;;;;;;4995528;28;20221;-66
2023/06/27 08:12:44;;;;;;;1999.90;999.90;;;23.50;99.90;;;;;;4995353;28;20206;-63
2023/06/27 08:15:11;;;;;;;1999.90;999.90;;;23.60;99.90;;;;;;4996030;28;20237;-63
2023/06/27 08:17:38;;;;;;;1999.90;999.90;;;23.70;99.90;;;;;;4995176;28;20212;-63
2023/06/27 08:20:07;;;;;;;1999.90;999.90;;;23.50;99.90;;;;;;4994477;28;20280;-63
2023/06/27 08:22:34;;;;;;;1999.90;999.90;;;23.00;99.90;;;;;;4993875;28;20214;-62
2023/06/27 08:25:01;;;;;;;1999.90;999.90;;;23.00;99.90;;;;;;4994456;28;20230;-63
2023/06/27 08:27:27;;;;;;;1999.90;999.90;;;23.10;99.90;;;;;;4995348;28;20206;-63
2023/06/27 08:29:56;;;;;;;1999.90;978.55;;;23.30;99.90;;;;;;5005111;28;20210;-63
2023/06/27 08:32:22;;;;;;;1999.90;999.90;;;23.60;99.90;;;;;;4996835;28;20222;-64
2023/06/27 08:34:49;;;;;;;1999.90;999.90;;;23.90;99.90;;;;;;5000967;28;20312;-63
2023/06/27 08:37:16;;;;;;;1999.90;999.90;;;24.10;99.90;;;;;;4994613;28;20577;-63
2023/06/27 08:39:43;;;;;;;1999.90;999.90;;;24.20;99.90;;;;;;4992930;28;20683;-62
2023/06/27 08:42:10;;;;;;;1999.90;999.90;;;24.40;99.90;;;;;;4993245;28;20202;-64
2023/06/27 08:44:36;;;;;;;1999.90;999.90;;;24.30;99.90;;;;;;4993108;28;20923;-63
2023/06/27 08:47:09;;;;;;;1999.90;999.90;;;24.20;99.90;;;;;;4994009;28;20206;-63
2023/06/27 08:49:38;;;;;;;1999.90;999.90;;;24.00;99.90;;;;;;4994776;28;20281;-63
2023/06/27 08:52:08;;;;;;;1999.90;999.90;;;24.10;99.90;;;;;;4995797;28;20646;-62
2023/06/27 08:54:40;;;;;;;1999.90;999.90;;;24.10;99.90;;;;;;4994060;28;20236;-67
2023/06/27 08:57:07;;;;;;;1999.90;999.90;;;24.10;99.90;;;;;;4996156;28;20205;-62
2023/06/27 08:59:35;;;;;;;1999.90;999.90;;;24.10;99.90;;;;;;4994320;28;20198;-62
2023/06/27 09:02:06;;;;;;;1999.90;999.90;;;24.20;99.90;;;;;;4995329;28;20212;-63
2023/06/27 09:04:34;;;;;;;1999.90;999.90;;;24.20;99.90;;;;;;4993389;28;20255;-66
2023/06/27 09:07:02;;;;;;;1999.90;999.90;;;24.20;99.90;;;;;;4992870;28;20232;-63
2023/06/27 09:09:30;;;;;;;1999.90;999.90;;;24.40;99.90;;;;;;4992259;28;20856;-62
2023/06/27 09:12:01;;;;;;;1999.90;999.90;;;24.40;99.90;;;;;;4993199;28;20316;-62
2023/06/27 09:14:28;;;;;;;1999.90;999.90;;;24.60;99.90;;;;;;4993523;28;20245;-62
2023/06/27 09:16:55;;;;;;;1040.55;457.45;;;24.40;99.90;;;;;;4993579;28;20293;-62
2023/06/27 09:19:23;;;;;;;1999.90;999.90;;;24.20;99.90;;;;;;4991362;28;20217;-62
2023/06/27 09:21:51;;;;;;;1999.90;999.90;;;24.10;99.90;;;;;;4993159;28;20198;-62
2023/06/27 09:24:22;;;;;;;1999.90;999.90;;;24.30;99.90;;;;;;4992687;28;20284;-63
2023/06/27 09:26:49;;;;;;;1999.90;999.90;;;24.40;99.90;;;;;;4992625;28;20193;-64
2023/06/27 09:29:16;;;;;;;1999.90;999.90;;;24.60;99.90;;;;;;4991871;28;20206;-64
2023/06/27 09:31:45;;;;;;;1999.90;999.90;;;24.80;99.90;;;;;;4992329;28;20606;-62
2023/06/27 09:34:12;;;;;;;1999.90;999.90;;;24.70;99.90;;;;;;4992019;28;20234;-64
2023/06/27 09:36:41;;;;;;;1999.90;999.90;;;24.70;99.90;;;;;;4993477;28;20216;-64
2023/06/27 09:39:09;;;;;;;1999.90;999.90;;;24.60;99.90;;;;;;4992626;28;20213;-62
2023/06/27 09:41:41;;;;;;;1999.90;999.90;;;24.60;99.90;;;;;;4993197;28;20202;-62
2023/06/27 09:44:12;;;;;;;1999.90;999.90;;;24.70;99.90;;;;;;4992827;28;20238;-62
2023/06/27 09:46:40;;;;;;;1999.90;999.90;;;24.90;99.90;;;;;;4993500;28;20198;-62
2023/06/27 09:49:07;;;;;;;1999.90;999.90;;;25.10;99.90;;;;;;4992517;28;20213;-62
2023/06/27 09:51:34;;;;;;;1999.90;999.90;;;25.10;99.90;;;;;;4992896;28;20400;-62
2023/06/27 09:54:02;;;;;;;1999.90;999.90;;;25.10;99.90;;;;;;4992401;28;20229;-62
2023/06/27 09:56:30;;;;;;;1335.97;867.47;;;25.20;99.90;;;;;;4992541;28;20755;-64
2023/06/27 09:58:57;;;;;;;1055.03;788.50;;;25.00;99.90;;;;;;4992725;28;20209;-63
2023/06/27 10:01:24;;;;;;;886.75;746.80;;;24.80;99.90;;;;;;4992626;28;20216;-62
2023/06/27 10:03:51;;;;;;;846.67;747.00;;;24.50;99.90;;;;;;4992895;28;20229;-62
2023/06/27 10:06:18;;;;;;;812.75;725.33;;;24.40;99.90;;;;;;4993310;28;20513;-63
2023/06/27 10:08:45;;;;;;;789.17;707.33;;;24.60;99.90;;;;;;4993478;28;20280;-63
2023/06/27 10:11:14;;;;;;;776.13;696.95;;;24.80;99.90;;;;;;4991558;28;20694;-62
2023/06/27 10:13:41;;;;;;;794.33;712.08;;;25.00;99.90;;;;;;4993094;28;20345;-63
2023/06/27 10:16:09;;;;;;;763.85;688.17;;;25.00;99.90;;;;;;4993405;28;20216;-63
2023/06/27 10:18:36;;;;;;;769.30;693.08;;;25.00;99.90;;;;;;4991797;28;20322;-64
2023/06/27 10:21:03;;;;;;;755.58;679.92;;;25.20;99.90;;;;;;4991693;28;20819;-63
2023/06/27 10:23:32;;;;;;;775.50;700.35;;;25.30;99.90;;;;;;4993799;28;20229;-62
2023/06/27 10:26:00;;;;;;;782.25;705.80;;;25.60;99.90;;;;;;4997457;28;20208;-63
2023/06/27 10:28:30;;;;;;;749.22;676.05;;;25.60;99.90;;;;;;5002032;28;20217;-63
2023/06/27 10:30:57;;;;;;;631.15;580.83;;;25.90;99.90;;;;;;5005979;28;20280;-63
2023/06/27 10:33:28;;;;;;;688.97;629.97;;;26.00;99.90;;;;;;4999847;28;20241;-62
2023/06/27 10:35:58;;;;;;;1999.90;999.90;;;26.10;99.90;;;;;;4997955;28;20707;-62
2023/06/27 10:38:34;;;;;;;1999.90;947.95;;;26.00;99.90;;;;;;4993749;28;20194;-63
2023/06/27 10:41:23;;;;;;;1999.90;924.35;;;26.10;99.90;;;;;;4992093;28;20210;-63
2023/06/27 10:43:53;;;;;;;1964.88;895.78;;;26.10;99.90;;;;;;4996320;28;20230;-63
2023/06/27 10:46:22;;;;;;;1999.90;951.47;;;26.40;99.90;;;;;;4990716;28;20228;-63
2023/06/27 10:48:53;;;;;;;1999.90;925.13;;;26.70;99.90;;;;;;4992584;28;20231;-62
2023/06/27 10:51:21;;;;;;;1999.90;948.22;;;26.90;99.90;;;;;;4991098;28;20214;-62
2023/06/27 10:54:16;;;;;;;1999.90;902.55;;;26.50;99.90;;;;;;4991149;28;20834;-63
2023/06/27 10:56:45;;;;;;;1999.90;904.60;;;26.30;99.90;;;;;;4991145;28;20216;-62
2023/06/27 10:59:16;;;;;;;1999.90;943.45;;;26.10;99.90;;;;;;4991321;28;20210;-64
2023/06/27 11:01:44;;;;;;;1999.90;913.83;;;25.70;99.90;;;;;;4991460;28;20202;-63
2023/06/27 11:04:18;;;;;;;1999.90;999.90;;;25.70;99.90;;;;;;4991146;28;20234;-63
2023/06/27 11:06:46;;;;;;;1999.90;999.90;;;25.70;99.90;;;;;;4991736;28;20212;-64
2023/06/27 11:09:15;;;;;;;1999.90;999.90;;;25.80;99.90;;;;;;4992201;28;20201;-65
2023/06/27 11:11:42;;;;;;;1999.90;999.90;;;26.00;99.90;;;;;;4994168;28;20233;-64
2023/06/27 11:14:11;;;;;;;1999.90;999.90;;;26.20;99.90;;;;;;4994758;28;20238;-61
2023/06/27 11:16:39;;;;;;;1999.90;999.90;;;26.10;99.90;;;;;;5041584;22;20293;-64
2023/06/27 11:19:06;;;;;;;1999.90;999.90;;;26.10;99.90;;;;;;5029843;28;20666;-65
2023/06/27 11:21:32;;;;;;;1999.90;999.90;;;26.30;99.90;;;;;;5036677;28;20211;-67
2023/06/27 11:24:00;;;;;;;1999.90;996.75;;;26.30;99.90;;;;;;5047042;28;20276;-70
2023/06/27 11:26:27;;;;;;;1999.90;999.90;;;26.60;99.90;;;;;;5045898;28;20312;-64
2023/06/27 11:28:54;;;;;;;1999.90;999.90;;;26.80;99.90;;;;;;5032875;28;20212;-65
2023/06/27 11:31:21;;;;;;;1999.90;999.90;;;26.80;99.90;;;;;;5036066;28;20224;-64
2023/06/27 11:33:58;;;;;;;1999.90;999.90;;;26.40;99.90;;;;;;5030823;28;20295;-65
2023/06/27 11:36:25;;;;;;;1999.90;999.58;;;26.40;99.90;;;;;;5030432;28;20309;-66
2023/06/27 11:38:52;;;;;;;1999.90;999.90;;;26.40;99.90;;;;;;5030274;28;20209;-66
2023/06/27 11:41:20;;;;;;;1999.90;999.90;;;26.60;99.90;;;;;;5030604;28;20211;-65
2023/06/27 11:43:47;;;;;;;1999.90;993.17;;;26.80;99.90;;;;;;5036216;28;20254;-65
2023/06/27 11:46:18;;;;;;;1999.90;999.90;;;26.60;99.90;;;;;;5034265;28;20231;-66
2023/06/27 11:48:45;;;;;;;1999.90;999.90;;;26.70;99.90;;;;;;5034556;28;20266;-65
2023/06/27 11:51:13;;;;;;;1999.90;999.90;;;26.80;99.90;;;;;;5033389;28;20228;-69
2023/06/27 11:53:48;;;;;;;1999.90;999.90;;;26.90;99.90;;;;;;5034980;28;20208;-64
2023/06/27 11:56:14;;;;;;;1999.90;999.90;;;26.90;99.90;;;;;;5034991;28;20325;-64
2023/06/27 11:58:41;;;;;;;1999.90;999.90;;;26.60;99.90;;;;;;5034526;28;20215;-65
2023/06/27 12:01:13;;;;;;;1999.90;999.90;;;25.90;99.90;;;;;;5034241;28;20698;-66
2023/06/27 12:03:40;;;;;;;1999.90;999.90;;;25.50;99.90;;;;;;5035087;28;20254;-65
2023/06/27 12:06:23;;;;;;;1999.90;999.90;;;25.40;99.90;;;;;;5034600;28;20228;-64
2023/06/27 12:08:51;;;;;;;1999.90;999.90;;;25.60;99.90;;;;;;5034288;28;20211;-69